Time;durP1;ratioP1;P1;durP2;ratioP2;P2;SDS_P1;SDS_P2;PMS_P1;PMS_P2;Temp;Humidity;BMP_temperature;BMP_pressure;BME280_temperature;BME280_humidity;BME280_pressure;Samples;Min_cycle;Max_cycle;Signal;HPM_P1;HPM_P2
2022/11/06 00:00:07;;;;;;;;;;;;;;;11.62;100.00;99010.75;5039774;28;21069;-47
2022/11/06 00:02:33;;;;;;;;;;;;;;;11.79;100.00;99001.56;5038300;28;19917;-46
2022/11/06 00:06:46;;;;;;;;;;;;;;;11.53;100.00;99000.78;5039600;28;20560;-46
2022/11/06 00:07:46;;;;;;;;;;;;;;;11.54;100.00;98997.31;5039794;28;19975;-46
2022/11/06 00:10:15;;;;;;;;;;;;;;;11.44;100.00;99001.94;5039931;28;20957;-46
2022/11/06 00:12:40;;;;;;;;;;;;;;;11.59;100.00;99003.16;5037347;28;19916;-48
2022/11/06 00:15:05;;;;;;;;;;;;;;;11.70;100.00;99008.75;5037502;28;20386;-47
2022/11/06 00:17:31;;;;;;;;;;;;;;;11.32;100.00;99011.88;5039546;28;19921;-46
2022/11/06 00:19:56;;;;;;;;;;;;;;;11.70;100.00;99007.94;5039281;28;20792;-45
2022/11/06 00:22:21;;;;;;;;;;;;;;;12.21;100.00;98993.16;5040094;28;20357;-46
2022/11/06 00:24:48;;;;;;;;;;;;;;;11.78;100.00;98995.56;5039880;28;20317;-46
2022/11/06 00:27:13;;;;;;;;;;;;;;;11.81;100.00;99000.59;5038658;28;19983;-46
2022/11/06 00:29:38;;;;;;;;;;;;;;;11.59;100.00;98989.41;5037473;28;20306;-46
2022/11/06 00:32:03;;;;;;;;;;;;;;;11.78;100.00;98990.41;5039789;28;20321;-45
2022/11/06 00:34:29;;;;;;;;;;;;;;;11.65;100.00;98990.00;5037428;28;19917;-46
2022/11/06 00:36:54;;;;;;;;;;;;;;;11.34;100.00;98992.03;5038978;28;19921;-45
2022/11/06 00:39:19;;;;;;;;;;;;;;;11.31;100.00;98987.78;5037778;28;19920;-46
2022/11/06 00:41:44;;;;;;;;;;;;;;;11.16;100.00;98991.75;5037601;28;20027;-46
2022/11/06 00:44:09;;;;;;;;;;;;;;;10.67;100.00;98993.41;5038081;28;19966;-46
2022/11/06 00:46:35;;;;;;;;;;;;;;;11.14;100.00;99008.19;5039136;28;19917;-45
2022/11/06 00:49:00;;;;;;;;;;;;;;;11.23;100.00;99003.53;5038983;28;19924;-45
2022/11/06 00:51:27;;;;;;;;;;;;;;;11.18;100.00;99004.59;5040552;28;20378;-45
2022/11/06 00:53:53;;;;;;;;;;;;;;;11.08;100.00;98989.47;5043697;28;20022;-45
2022/11/06 00:56:18;;;;;;;;;;;;;;;10.96;100.00;98991.59;5043419;28;20369;-45
2022/11/06 00:58:44;;;;;;;;;;;;;;;11.30;100.00;98984.38;5042808;28;19925;-46
2022/11/06 01:01:09;;;;;;;;;;;;;;;10.63;100.00;98976.38;5042010;28;19939;-45
2022/11/06 01:03:34;;;;;;;;;;;;;;;11.02;100.00;98989.66;5043814;28;20007;-46
2022/11/06 01:06:18;;;;;;;;;;;;;;;10.78;100.00;98981.00;5043106;28;19917;-47
2022/11/06 01:08:44;;;;;;;;;;;;;;;10.78;100.00;98981.00;5043114;28;19951;-46
2022/11/06 01:11:20;;;;;;;;;;;;;;;11.46;100.00;98978.69;5042789;28;20567;-46
2022/11/06 01:13:45;;;;;;;;;;;;;;;11.08;100.00;98983.44;5040427;28;19923;-46
2022/11/06 01:16:11;;;;;;;;;;;;;;;11.77;100.00;98978.41;5043199;28;20366;-46
2022/11/06 01:18:37;;;;;;;;;;;;;;;11.22;100.00;98976.09;5041557;28;19955;-46
2022/11/06 01:21:04;;;;;;;;;;;;;;;11.39;100.00;98982.38;5040674;28;20415;-46
2022/11/06 01:23:29;;;;;;;;;;;;;;;11.45;100.00;98990.75;5043095;28;19913;-46
2022/11/06 01:25:58;;;;;;;;;;;;;;;11.58;100.00;98979.97;5042357;28;19925;-46
2022/11/06 01:28:23;;;;;;;;;;;;;;;11.51;100.00;98976.78;5042796;28;19921;-48
2022/11/06 01:30:48;;;;;;;;;;;;;;;11.92;100.00;98977.00;5040537;28;19944;-46
2022/11/06 01:33:13;;;;;;;;;;;;;;;12.03;100.00;98969.72;5042288;28;19921;-46
2022/11/06 01:35:48;;;;;;;;;;;;;;;12.18;100.00;98957.09;5055028;28;19925;-47
2022/11/06 01:38:14;;;;;;;;;;;;;;;12.09;100.00;98986.72;5041634;28;19920;-46
2022/11/06 01:40:40;;;;;;;;;;;;;;;12.17;100.00;98983.84;5040586;28;19920;-47
2022/11/06 01:43:09;;;;;;;;;;;;;;;12.20;100.00;98981.13;5042138;28;19921;-45
2022/11/06 01:45:37;;;;;;;;;;;;;;;11.93;100.00;98986.47;5042702;28;20941;-46
2022/11/06 01:48:02;;;;;;;;;;;;;;;12.14;100.00;98970.13;5041190;28;19917;-46
2022/11/06 01:50:27;;;;;;;;;;;;;;;11.84;100.00;98963.56;5041115;28;19921;-46
2022/11/06 01:52:52;;;;;;;;;;;;;;;11.93;100.00;98968.41;5039487;28;19924;-47
2022/11/06 01:55:20;;;;;;;;;;;;;;;11.79;100.00;98953.41;5041548;28;19928;-48
2022/11/06 01:57:45;;;;;;;;;;;;;;;11.46;100.00;98966.63;5040678;28;19944;-46
2022/11/06 02:00:11;;;;;;;;;;;;;;;11.47;100.00;98960.59;5040107;28;19970;-46
2022/11/06 02:02:36;;;;;;;;;;;;;;;11.11;100.00;98957.59;5022157;28;19928;-46
2022/11/06 02:05:01;;;;;;;;;;;;;;;10.97;100.00;98960.63;5039825;28;19921;-48
2022/11/06 02:07:26;;;;;;;;;;;;;;;11.07;100.00;98956.00;5040381;28;19921;-46
2022/11/06 02:09:52;;;;;;;;;;;;;;;11.19;100.00;98954.72;5039423;28;19927;-46
2022/11/06 02:12:55;;;;;;;;;;;;;;;11.49;100.00;98937.31;5040622;28;19924;-46
2022/11/06 02:15:32;;;;;;;;;;;;;;;11.73;100.00;98933.00;5017037;28;21729;-47
2022/11/06 02:18:00;;;;;;;;;;;;;;;10.86;100.00;98932.66;5017973;28;19948;-47
2022/11/06 02:20:37;;;;;;;;;;;;;;;11.50;100.00;98936.44;5031224;28;20581;-48
2022/11/06 02:23:15;;;;;;;;;;;;;;;11.10;100.00;98937.84;5040941;28;19925;-46
2022/11/06 02:25:58;;;;;;;;;;;;;;;11.47;100.00;98926.19;5041110;28;19928;-46
2022/11/06 02:28:31;;;;;;;;;;;;;;;11.69;100.00;98929.66;5040446;28;20392;-46
2022/11/06 02:30:56;;;;;;;;;;;;;;;11.49;100.00;98927.00;5040127;28;20432;-45
2022/11/06 02:33:24;;;;;;;;;;;;;;;11.01;100.00;98922.72;5037095;28;19924;-45
2022/11/06 02:35:51;;;;;;;;;;;;;;;10.95;100.00;98928.94;5038114;28;20914;-46
2022/11/06 02:38:17;;;;;;;;;;;;;;;11.13;100.00;98901.69;5039061;28;19916;-47
2022/11/06 02:40:45;;;;;;;;;;;;;;;10.88;100.00;98910.25;5037912;28;19917;-46
2022/11/06 02:43:10;;;;;;;;;;;;;;;11.20;100.00;98916.03;5039958;28;19978;-45
2022/11/06 02:45:47;;;;;;;;;;;;;;;11.09;100.00;98920.72;5039278;28;19916;-46
2022/11/06 02:48:12;;;;;;;;;;;;;;;10.96;100.00;98922.03;5037665;28;20003;-46
2022/11/06 02:50:39;;;;;;;;;;;;;;;10.93;100.00;98922.16;5040295;28;19916;-47
2022/11/06 02:53:05;;;;;;;;;;;;;;;11.54;100.00;98909.63;5039105;28;19968;-45
2022/11/06 02:55:39;;;;;;;;;;;;;;;11.18;100.00;98907.50;5040091;28;20165;-45
2022/11/06 02:58:05;;;;;;;;;;;;;;;11.30;100.00;98917.34;5038925;28;20051;-46
2022/11/06 03:00:30;;;;;;;;;;;;;;;10.85;100.00;98920.66;5038780;28;20148;-46
2022/11/06 03:03:06;;;;;;;;;;;;;;;11.31;100.00;98920.75;5040865;28;19921;-46
2022/11/06 03:05:32;;;;;;;;;;;;;;;11.43;100.00;98922.09;5040023;28;20019;-46
2022/11/06 03:08:00;;;;;;;;;;;;;;;11.44;100.00;98908.28;5040076;28;19923;-46
2022/11/06 03:10:26;;;;;;;;;;;;;;;11.55;100.00;98911.28;5038001;28;20417;-46
2022/11/06 03:13:11;;;;;;;;;;;;;;;10.80;100.00;98912.25;5040669;28;20011;-45
2022/11/06 03:15:38;;;;;;;;;;;;;;;10.77;100.00;98907.22;5046227;28;20462;-46
2022/11/06 03:18:14;;;;;;;;;;;;;;;10.94;100.00;98903.22;5039483;28;20031;-46
2022/11/06 03:20:47;;;;;;;;;;;;;;;11.55;100.00;98916.47;5039168;28;20348;-45
2022/11/06 03:23:15;;;;;;;;;;;;;;;11.11;100.00;98906.03;5039599;28;19921;-46
2022/11/06 03:25:50;;;;;;;;;;;;;;;11.02;100.00;98914.09;5039517;28;19955;-45
2022/11/06 03:28:15;;;;;;;;;;;;;;;11.02;100.00;98921.81;5038675;28;19963;-46
2022/11/06 03:30:42;;;;;;;;;;;;;;;11.13;100.00;98911.13;5038785;28;19963;-46
2022/11/06 03:33:15;;;;;;;;;;;;;;;10.99;100.00;98911.59;5039791;28;19917;-46
2022/11/06 03:35:46;;;;;;;;;;;;;;;11.34;100.00;98909.53;5039583;28;20302;-45
2022/11/06 03:38:18;;;;;;;;;;;;;;;10.61;100.00;98906.06;5038785;28;19920;-46
2022/11/06 03:40:44;;;;;;;;;;;;;;;10.74;100.00;98915.06;5038295;28;20557;-46
2022/11/06 03:43:11;;;;;;;;;;;;;;;10.88;100.00;98918.00;5039805;28;19924;-46
2022/11/06 03:45:36;;;;;;;;;;;;;;;10.81;100.00;98915.66;5039095;28;20504;-46
2022/11/06 03:48:08;;;;;;;;;;;;;;;10.69;100.00;98919.50;5038812;28;19916;-46
2022/11/06 03:50:35;;;;;;;;;;;;;;;11.19;100.00;98910.91;5039001;28;19927;-46
2022/11/06 03:53:08;;;;;;;;;;;;;;;10.94;100.00;98913.50;5038730;28;20176;-46
2022/11/06 03:55:59;;;;;;;;;;;;;;;10.19;100.00;98904.78;5039764;28;19917;-47
2022/11/06 03:58:26;;;;;;;;;;;;;;;11.46;100.00;98901.31;5037457;28;20290;-46
2022/11/06 04:00:52;;;;;;;;;;;;;;;10.86;100.00;98888.88;5037236;28;19923;-46
2022/11/06 04:03:20;;;;;;;;;;;;;;;10.90;100.00;98902.47;5037172;28;19921;-47
2022/11/06 04:06:11;;;;;;;;;;;;;;;10.43;100.00;98898.03;5039452;28;19920;-46
2022/11/06 04:14:06;;;;;;;;;;;;;;;10.80;100.00;98899.38;5037942;28;19928;-47
2022/11/06 04:16:35;;;;;;;;;;;;;;;10.68;100.00;98897.22;5038016;28;19926;-45
2022/11/06 04:19:01;;;;;;;;;;;;;;;10.73;100.00;98905.63;5037634;28;19916;-45
2022/11/06 04:21:29;;;;;;;;;;;;;;;11.16;100.00;98906.72;5039172;28;20594;-47
2022/11/06 04:27:07;;;;;;;;;;;;;;;11.01;100.00;98909.81;5044524;28;19966;-46
2022/11/06 04:29:54;;;;;;;;;;;;;;;10.61;100.00;98908.63;5044032;28;19920;-47
2022/11/06 04:32:21;;;;;;;;;;;;;;;10.86;100.00;98909.47;5042236;28;19974;-45
2022/11/06 04:34:48;;;;;;;;;;;;;;;10.91;100.00;98913.63;5044070;28;19921;-48
2022/11/06 04:37:17;;;;;;;;;;;;;;;10.32;100.00;98910.41;5041404;28;20053;-46
2022/11/06 04:39:55;;;;;;;;;;;;;;;10.86;100.00;98917.19;5042405;28;19916;-46
2022/11/06 04:42:20;;;;;;;;;;;;;;;10.85;100.00;98905.19;5042066;28;20140;-46
2022/11/06 04:44:47;;;;;;;;;;;;;;;10.72;100.00;98898.81;5044321;28;19917;-45
2022/11/06 04:47:14;;;;;;;;;;;;;;;10.36;100.00;98900.88;5042327;28;20455;-48
2022/11/06 04:49:39;;;;;;;;;;;;;;;11.17;100.00;98895.47;5041872;28;19928;-45
2022/11/06 04:52:06;;;;;;;;;;;;;;;11.11;100.00;98895.72;5041282;28;20389;-46
2022/11/06 04:54:31;;;;;;;;;;;;;;;11.04;100.00;98894.28;5041718;28;19921;-46
2022/11/06 04:56:59;;;;;;;;;;;;;;;10.85;100.00;98892.31;5042807;28;19916;-45
2022/11/06 04:59:25;;;;;;;;;;;;;;;11.01;100.00;98895.19;5042063;28;19923;-48
2022/11/06 05:01:50;;;;;;;;;;;;;;;10.50;100.00;98897.84;5041748;28;19953;-46
2022/11/06 05:04:16;;;;;;;;;;;;;;;10.56;100.00;98902.78;5042969;28;19956;-48
2022/11/06 05:06:41;;;;;;;;;;;;;;;11.03;100.00;98905.47;5043560;28;19913;-45
2022/11/06 05:09:06;;;;;;;;;;;;;;;10.59;100.00;98888.06;5043157;28;20019;-45
2022/11/06 05:11:31;;;;;;;;;;;;;;;11.38;100.00;98887.88;5043574;28;20299;-45
2022/11/06 05:13:57;;;;;;;;;;;;;;;11.12;100.00;98879.34;5040961;28;19912;-45
2022/11/06 05:16:22;;;;;;;;;;;;;;;10.88;100.00;98879.34;5043447;28;19993;-45
2022/11/06 05:18:47;;;;;;;;;;;;;;;10.29;100.00;98873.66;5042359;28;19916;-47
2022/11/06 05:23:56;;;;;;;;;;;;;;;10.70;100.00;98869.69;5040970;28;19923;-45
2022/11/06 05:26:21;;;;;;;;;;;;;;;10.84;100.00;98862.31;5040723;28;19920;-46
2022/11/06 05:28:46;;;;;;;;;;;;;;;10.77;100.00;98870.31;5039771;28;20007;-46
2022/11/06 05:31:12;;;;;;;;;;;;;;;10.70;100.00;98864.53;5041357;28;19975;-46
2022/11/06 05:33:37;;;;;;;;;;;;;;;10.83;100.00;98862.34;5041626;28;19947;-46
2022/11/06 05:36:03;;;;;;;;;;;;;;;10.45;100.00;98860.22;5042486;28;19921;-47
2022/11/06 05:38:28;;;;;;;;;;;;;;;10.42;100.00;98860.34;5040219;28;19924;-46
2022/11/06 05:40:53;;;;;;;;;;;;;;;10.69;100.00;98847.38;5042564;28;19925;-46
2022/11/06 05:43:18;;;;;;;;;;;;;;;10.69;100.00;98847.38;5042240;28;19916;-46
2022/11/06 05:45:44;;;;;;;;;;;;;;;10.73;100.00;98827.53;5042516;28;19923;-46
2022/11/06 05:48:09;;;;;;;;;;;;;;;10.63;100.00;98837.31;5041136;28;19924;-46
2022/11/06 05:50:34;;;;;;;;;;;;;;;10.49;100.00;98839.50;5043037;28;19927;-46
2022/11/06 05:52:59;;;;;;;;;;;;;;;10.42;100.00;98842.31;5041787;28;20012;-46
2022/11/06 05:55:24;;;;;;;;;;;;;;;10.75;100.00;98834.31;5042392;28;20004;-45
2022/11/06 05:57:50;;;;;;;;;;;;;;;10.61;100.00;98818.50;5042231;28;20229;-46
2022/11/06 06:00:15;;;;;;;;;;;;;;;10.31;100.00;98823.81;5040299;28;19999;-47
2022/11/06 06:02:40;;;;;;;;;;;;;;;10.64;100.00;98823.53;5041158;28;19925;-46
2022/11/06 06:05:06;;;;;;;;;;;;;;;10.53;100.00;98825.63;5042279;28;20301;-45
2022/11/06 06:07:31;;;;;;;;;;;;;;;10.70;100.00;98819.88;5040069;28;19948;-45
2022/11/06 06:09:57;;;;;;;;;;;;;;;10.20;100.00;98811.25;5039100;28;19921;-45
2022/11/06 06:12:25;;;;;;;;;;;;;;;10.91;100.00;98816.56;5041247;28;19920;-45
2022/11/06 06:14:50;;;;;;;;;;;;;;;10.66;100.00;98816.59;5038483;28;19921;-46
2022/11/06 06:17:15;;;;;;;;;;;;;;;10.65;100.00;98814.91;5041731;28;19916;-45
2022/11/06 06:19:41;;;;;;;;;;;;;;;10.27;100.00;98825.59;5038632;28;19925;-46
2022/11/06 06:22:06;;;;;;;;;;;;;;;10.63;100.00;98821.88;5042241;28;19923;-45
2022/11/06 06:24:31;;;;;;;;;;;;;;;10.62;100.00;98821.00;5042560;28;19923;-45
2022/11/06 06:26:56;;;;;;;;;;;;;;;10.51;100.00;98823.09;5041752;28;19970;-45
2022/11/06 06:29:21;;;;;;;;;;;;;;;10.53;100.00;98816.16;5038904;28;19916;-46
2022/11/06 06:31:48;;;;;;;;;;;;;;;10.77;100.00;98806.75;5041080;28;19963;-45
2022/11/06 06:34:14;;;;;;;;;;;;;;;10.68;100.00;98797.63;5039878;28;20293;-45
2022/11/06 06:36:39;;;;;;;;;;;;;;;10.50;100.00;98815.47;5041918;28;19916;-45
2022/11/06 06:39:04;;;;;;;;;;;;;;;11.08;100.00;98805.63;5040370;28;19921;-45
2022/11/06 06:41:29;;;;;;;;;;;;;;;10.65;100.00;98815.75;5042418;28;19916;-45
2022/11/06 06:43:55;;;;;;;;;;;;;;;10.43;100.00;98813.09;5041892;28;19916;-48
2022/11/06 06:46:20;;;;;;;;;;;;;;;10.18;100.00;98814.78;5041602;28;19925;-46
2022/11/06 06:48:45;;;;;;;;;;;;;;;10.03;100.00;98816.97;5039733;28;20770;-46
2022/11/06 06:51:10;;;;;;;;;;;;;;;10.84;100.00;98810.78;5041714;28;20553;-46
2022/11/06 06:53:36;;;;;;;;;;;;;;;10.35;100.00;98817.66;5041541;28;20074;-46
2022/11/06 06:56:01;;;;;;;;;;;;;;;10.15;100.00;98815.72;5042098;28;20012;-45
2022/11/06 06:58:26;;;;;;;;;;;;;;;11.26;100.00;98804.94;5041037;28;20378;-46
2022/11/06 07:00:52;;;;;;;;;;;;;;;11.20;100.00;98797.44;5040864;28;20520;-46
2022/11/06 07:03:17;;;;;;;;;;;;;;;10.35;100.00;98811.66;5040082;28;19920;-45
2022/11/06 07:05:42;;;;;;;;;;;;;;;10.24;100.00;98817.13;5041424;28;20381;-45
2022/11/06 07:08:07;;;;;;;;;;;;;;;11.05;100.00;98824.63;5041015;28;20933;-46
2022/11/06 07:10:33;;;;;;;;;;;;;;;10.92;100.00;98818.22;5041251;28;19966;-46
2022/11/06 07:13:01;;;;;;;;;;;;;;;10.79;100.00;98807.53;5039795;28;19944;-46
2022/11/06 07:15:26;;;;;;;;;;;;;;;10.50;100.00;98807.72;5041095;28;19921;-46
2022/11/06 07:17:51;;;;;;;;;;;;;;;10.53;100.00;98811.03;5040659;28;20647;-46
2022/11/06 07:20:17;;;;;;;;;;;;;;;11.06;100.00;98804.84;5039914;28;19933;-46
2022/11/06 07:22:42;;;;;;;;;;;;;;;11.29;100.00;98796.25;5039517;28;20087;-46
2022/11/06 07:25:07;;;;;;;;;;;;;;;10.95;100.00;98800.09;5041472;28;19955;-45
2022/11/06 07:27:32;;;;;;;;;;;;;;;10.61;100.00;98803.06;5039637;28;19960;-45
2022/11/06 07:29:59;;;;;;;;;;;;;;;10.74;100.00;98809.44;5040231;28;19924;-45
2022/11/06 07:32:24;;;;;;;;;;;;;;;10.80;100.00;98809.22;5053809;28;19924;-46
2022/11/06 07:34:49;;;;;;;;;;;;;;;11.24;100.00;98809.34;5040137;28;19927;-46
2022/11/06 07:37:15;;;;;;;;;;;;;;;11.73;100.00;98801.41;5032232;28;19925;-45
2022/11/06 07:39:40;;;;;;;;;;;;;;;11.82;100.00;98805.38;5033400;28;19964;-46
2022/11/06 07:42:05;;;;;;;;;;;;;;;11.86;100.00;98794.00;5036243;28;19951;-46
2022/11/06 07:44:30;;;;;;;;;;;;;;;11.10;100.00;98808.97;5038735;28;19960;-47
2022/11/06 07:46:56;;;;;;;;;;;;;;;11.60;100.00;98800.22;5040575;28;20773;-46
2022/11/06 07:49:21;;;;;;;;;;;;;;;12.34;100.00;98790.34;5051227;28;21001;-46
2022/11/06 07:51:46;;;;;;;;;;;;;;;12.16;100.00;98798.84;5037727;28;20055;-45
2022/11/06 07:54:11;;;;;;;;;;;;;;;11.23;100.00;98802.47;5055215;28;19944;-47
2022/11/06 07:56:36;;;;;;;;;;;;;;;11.68;100.00;98809.34;5039072;28;19960;-48
2022/11/06 07:59:02;;;;;;;;;;;;;;;12.20;100.00;98805.56;5035701;28;20033;-46
2022/11/06 08:01:27;;;;;;;;;;;;;;;11.89;100.00;98793.94;5038248;28;20007;-46
2022/11/06 08:03:52;;;;;;;;;;;;;;;11.37;100.00;98803.69;5039512;28;19916;-46
2022/11/06 08:06:17;;;;;;;;;;;;;;;12.38;100.00;98798.78;5039881;28;19923;-46
2022/11/06 08:08:43;;;;;;;;;;;;;;;12.37;100.00;98797.94;5036637;28;19913;-47
2022/11/06 08:11:09;;;;;;;;;;;;;;;12.01;100.00;98790.84;5053046;28;19964;-46
2022/11/06 08:13:34;;;;;;;;;;;;;;;11.89;100.00;98791.34;5036323;28;19921;-47
2022/11/06 08:16:06;;;;;;;;;;;;;;;12.10;100.00;98793.03;5036800;28;20354;-46
2022/11/06 08:18:31;;;;;;;;;;;;;;;12.41;100.00;98807.25;5039352;28;19921;-46
2022/11/06 08:20:57;;;;;;;;;;;;;;;12.41;100.00;98794.34;5036753;28;20377;-46
2022/11/06 08:23:22;;;;;;;;;;;;;;;12.64;100.00;98797.69;5039186;28;20007;-45
2022/11/06 08:25:47;;;;;;;;;;;;;;;13.03;100.00;98782.13;5036820;28;19975;-48
2022/11/06 08:28:12;;;;;;;;;;;;;;;13.31;100.00;98771.38;5038871;28;20436;-50
2022/11/06 08:30:38;;;;;;;;;;;;;;;12.45;100.00;98766.63;5037881;28;19931;-46
2022/11/06 08:33:04;;;;;;;;;;;;;;;13.23;100.00;98770.03;5038436;28;20002;-47
2022/11/06 08:35:30;;;;;;;;;;;;;;;13.78;100.00;98750.16;5039687;28;20408;-46
2022/11/06 08:37:55;;;;;;;;;;;;;;;13.44;100.00;98748.38;5038235;28;20011;-46
2022/11/06 08:40:21;;;;;;;;;;;;;;;12.92;100.00;98751.59;5037713;28;19977;-47
2022/11/06 08:42:46;;;;;;;;;;;;;;;12.60;100.00;98753.03;5038673;28;19917;-46
2022/11/06 08:45:11;;;;;;;;;;;;;;;12.94;100.00;98752.38;5037696;28;19952;-46
2022/11/06 08:47:37;;;;;;;;;;;;;;;13.69;100.00;98732.50;5034560;28;19967;-46
2022/11/06 08:50:02;;;;;;;;;;;;;;;13.02;100.00;98730.50;5032631;28;20550;-46
2022/11/06 08:52:27;;;;;;;;;;;;;;;14.39;100.00;98709.09;5035714;28;19924;-46
2022/11/06 08:54:52;;;;;;;;;;;;;;;15.01;100.00;98692.00;5038886;28;19921;-48
2022/11/06 08:57:18;;;;;;;;;;;;;;;14.48;100.00;98708.63;5037809;28;19921;-47
2022/11/06 08:59:43;;;;;;;;;;;;;;;14.18;100.00;98704.13;5034772;28;19931;-49
2022/11/06 09:02:11;;;;;;;;;;;;;;;14.23;100.00;98699.56;5039199;28;19955;-47
2022/11/06 09:04:36;;;;;;;;;;;;;;;15.24;100.00;98697.66;5035360;28;19931;-46
2022/11/06 09:07:02;;;;;;;;;;;;;;;13.87;100.00;98699.69;5035977;28;19921;-46
2022/11/06 09:09:30;;;;;;;;;;;;;;;15.10;100.00;98689.78;5051883;28;20031;-48
2022/11/06 09:11:56;;;;;;;;;;;;;;;13.97;100.00;98692.28;5035580;28;19977;-46
2022/11/06 09:14:21;;;;;;;;;;;;;;;15.04;100.00;98686.63;5040720;28;21236;-47
2022/11/06 09:16:47;;;;;;;;;;;;;;;14.19;100.00;98687.69;5042745;28;20294;-46
2022/11/06 09:19:12;;;;;;;;;;;;;;;13.62;100.00;98701.84;5037886;28;19999;-47
2022/11/06 09:21:37;;;;;;;;;;;;;;;14.97;100.00;98674.09;5042208;28;19963;-46
2022/11/06 09:24:02;;;;;;;;;;;;;;;14.42;100.00;98689.06;5037334;28;19920;-46
2022/11/06 09:26:28;;;;;;;;;;;;;;;14.28;100.00;98683.78;5055212;28;19928;-48
2022/11/06 09:28:53;;;;;;;;;;;;;;;13.70;100.00;98697.09;5039737;28;19966;-50
2022/11/06 09:31:18;;;;;;;;;;;;;;;14.21;100.00;98672.91;5040221;28;19913;-47
2022/11/06 09:33:43;;;;;;;;;;;;;;;14.56;100.00;98670.22;5040326;28;19928;-48
2022/11/06 09:36:09;;;;;;;;;;;;;;;14.56;100.00;98661.63;5040117;28;19925;-47
2022/11/06 09:38:34;;;;;;;;;;;;;;;15.19;100.00;98660.75;5039814;28;19924;-47
2022/11/06 09:41:00;;;;;;;;;;;;;;;15.21;100.00;98653.72;5043330;28;20358;-49
2022/11/06 09:43:25;;;;;;;;;;;;;;;15.34;100.00;98646.91;5043089;28;19917;-46
2022/11/06 09:45:50;;;;;;;;;;;;;;;14.54;100.00;98658.25;5057494;28;19924;-46
2022/11/06 09:48:23;;;;;;;;;;;;;;;14.85;100.00;98666.06;5044651;28;19943;-48
2022/11/06 09:51:12;;;;;;;;;;;;;;;14.49;100.00;98663.69;5041635;28;19913;-49
2022/11/06 09:53:55;;;;;;;;;;;;;;;15.12;100.00;98662.00;5024881;28;19921;-47
2022/11/06 09:56:24;;;;;;;;;;;;;;;15.15;100.00;98669.66;5040899;28;19921;-47
2022/11/06 09:58:49;;;;;;;;;;;;;;;15.27;100.00;98658.56;5056386;28;19923;-47
2022/11/06 10:01:18;;;;;;;;;;;;;;;16.07;100.00;98646.97;5040458;28;19921;-47
2022/11/06 10:04:04;;;;;;;;;;;;;;;15.95;100.00;98642.53;5040960;28;19925;-49
2022/11/06 10:06:30;;;;;;;;;;;;;;;15.21;100.00;98648.53;5042036;28;19917;-47
2022/11/06 10:08:56;;;;;;;;;;;;;;;15.30;100.00;98650.59;5039736;28;20301;-47
2022/11/06 10:11:25;;;;;;;;;;;;;;;15.24;100.00;98646.59;5040849;28;20373;-47
2022/11/06 10:13:56;;;;;;;;;;;;;;;16.45;100.00;98627.41;5038910;28;20077;-48
2022/11/06 10:16:28;;;;;;;;;;;;;;;16.06;100.00;98623.72;5040854;28;19975;-49
2022/11/06 10:18:53;;;;;;;;;;;;;;;15.82;100.00;98621.63;5041147;28;19921;-50
2022/11/06 10:21:18;;;;;;;;;;;;;;;15.67;100.00;98627.72;5041882;28;19924;-47
2022/11/06 10:23:56;;;;;;;;;;;;;;;15.38;100.00;98627.66;5041510;28;19943;-47
2022/11/06 10:26:41;;;;;;;;;;;;;;;16.20;100.00;98615.06;5042483;28;19920;-47
2022/11/06 10:29:10;;;;;;;;;;;;;;;15.88;100.00;98610.91;5038078;28;19920;-47
2022/11/06 10:31:42;;;;;;;;;;;;;;;15.53;100.00;98604.31;5040111;28;20385;-48
2022/11/06 10:34:09;;;;;;;;;;;;;;;16.00;100.00;98603.28;5041754;28;19917;-47
2022/11/06 10:36:37;;;;;;;;;;;;;;;16.39;100.00;98593.97;5040202;28;19966;-47
2022/11/06 10:39:02;;;;;;;;;;;;;;;15.36;100.00;98598.38;5038761;28;19921;-50
2022/11/06 10:41:30;;;;;;;;;;;;;;;15.08;100.00;98600.88;5040732;28;19981;-50
2022/11/06 10:43:57;;;;;;;;;;;;;;;15.35;100.00;98591.53;5039851;28;19917;-48
2022/11/06 10:46:38;;;;;;;;;;;;;;;16.05;100.00;98580.47;5041927;28;19988;-47
2022/11/06 10:49:17;;;;;;;;;;;;;;;16.15;100.00;98586.78;5038346;28;19921;-47
2022/11/06 10:51:50;;;;;;;;;;;;;;;15.61;100.00;98578.75;5038477;28;19971;-47
2022/11/06 10:54:20;;;;;;;;;;;;;;;16.58;100.00;98571.13;5041747;28;20042;-49
2022/11/06 10:57:04;;;;;;;;;;;;;;;16.50;100.00;98561.19;5040822;28;19927;-49
2022/11/06 10:59:29;;;;;;;;;;;;;;;15.64;100.00;98563.00;5039527;28;19921;-48
2022/11/06 11:01:54;;;;;;;;;;;;;;;16.50;100.00;98550.78;5041850;28;20558;-50
2022/11/06 11:04:19;;;;;;;;;;;;;;;15.48;100.00;98561.31;5041302;28;19916;-48
2022/11/06 11:06:44;;;;;;;;;;;;;;;15.42;100.00;98553.91;5041140;28;19938;-47
2022/11/06 11:09:39;;;;;;;;;;;;;;;15.45;100.00;98551.13;5039734;28;19924;-49
2022/11/06 11:12:04;;;;;;;;;;;;;;;16.01;100.00;98537.41;5036794;28;19924;-47
2022/11/06 11:14:30;;;;;;;;;;;;;;;16.04;100.00;98542.44;5037501;28;19920;-49
2022/11/06 11:16:59;;;;;;;;;;;;;;;16.51;100.00;98526.47;5041144;28;19917;-48
2022/11/06 11:19:37;;;;;;;;;;;;;;;16.04;100.00;98526.88;5037537;28;20007;-49
2022/11/06 11:22:15;;;;;;;;;;;;;;;16.52;100.00;98512.53;5038865;28;19931;-48
2022/11/06 11:25:06;;;;;;;;;;;;;;;17.07;100.00;98502.91;5040996;28;19921;-49
2022/11/06 11:27:34;;;;;;;;;;;;;;;16.76;100.00;98487.63;5039264;28;20327;-49
2022/11/06 11:29:59;;;;;;;;;;;;;;;17.38;100.00;98490.47;5038608;28;19923;-48
2022/11/06 11:32:24;;;;;;;;;;;;;;;16.97;100.00;98488.00;5037605;28;19925;-48
2022/11/06 11:34:53;;;;;;;;;;;;;;;17.06;100.00;98472.66;5039517;28;19916;-50
2022/11/06 11:37:31;;;;;;;;;;;;;;;17.77;100.00;98460.00;5045975;28;20302;-48
2022/11/06 11:40:15;;;;;;;;;;;;;;;17.28;100.00;98469.41;5040696;28;20007;-50
2022/11/06 11:42:40;;;;;;;;;;;;;;;17.51;100.00;98464.41;5037913;28;19966;-49
2022/11/06 11:45:08;;;;;;;;;;;;;;;18.06;100.00;98439.72;5040172;28;20430;-47
2022/11/06 11:47:34;;;;;;;;;;;;;;;18.13;100.00;98425.31;5039370;28;20061;-49
2022/11/06 11:50:32;;;;;;;;;;;;;;;17.39;100.00;98437.44;5039173;28;19916;-48
2022/11/06 11:52:58;;;;;;;;;;;;;;;16.69;100.00;98435.19;5027984;28;19929;-49
2022/11/06 11:55:26;;;;;;;;;;;;;;;16.03;100.00;98442.06;5039783;28;20011;-47
2022/11/06 11:57:51;;;;;;;;;;;;;;;16.60;100.00;98423.63;5038540;28;19924;-47
2022/11/06 12:00:20;;;;;;;;;;;;;;;17.76;100.00;98408.84;5041096;28;19940;-47
2022/11/06 12:02:46;;;;;;;;;;;;;;;17.45;100.00;98413.59;5040013;28;19925;-47
2022/11/06 12:05:13;;;;;;;;;;;;;;;17.37;100.00;98402.06;5039427;28;19916;-47
2022/11/06 12:07:42;;;;;;;;;;;;;;;17.91;100.00;98405.19;5038254;28;20313;-49
2022/11/06 12:10:23;;;;;;;;;;;;;;;18.18;98.93;98396.31;5037665;28;20927;-49
2022/11/06 12:12:48;;;;;;;;;;;;;;;18.27;98.01;98390.44;5038529;28;19920;-47
2022/11/06 12:15:18;;;;;;;;;;;;;;;18.44;95.69;98378.75;5037235;28;19928;-47
2022/11/06 12:17:44;;;;;;;;;;;;;;;17.69;96.06;98389.38;5039123;28;19917;-49
2022/11/06 12:20:11;;;;;;;;;;;;;;;18.89;96.25;98375.44;5037920;28;19939;-47
2022/11/06 12:22:37;;;;;;;;;;;;;;;17.59;94.70;98372.75;5038687;28;19916;-47
2022/11/06 12:25:21;;;;;;;;;;;;;;;17.66;98.26;98394.81;5038489;28;20408;-49
2022/11/06 12:27:46;;;;;;;;;;;;;;;18.06;98.33;98397.19;5040035;28;19916;-48
2022/11/06 12:30:13;;;;;;;;;;;;;;;18.22;98.08;98402.94;5036090;28;19921;-50
2022/11/06 12:32:38;;;;;;;;;;;;;;;18.14;100.00;98387.06;5038508;28;19921;-49
2022/11/06 12:35:03;;;;;;;;;;;;;;;17.73;98.61;98367.41;5040527;28;19923;-47
2022/11/06 12:37:49;;;;;;;;;;;;;;;17.19;97.47;98386.75;5039325;28;19917;-48
2022/11/06 12:40:19;;;;;;;;;;;;;;;17.02;100.00;98380.13;5038111;28;19959;-48
2022/11/06 12:43:03;;;;;;;;;;;;;;;17.93;100.00;98377.25;5038490;28;19921;-48
2022/11/06 12:45:33;;;;;;;;;;;;;;;17.44;98.30;98370.28;5038255;28;19917;-48
2022/11/06 12:48:08;;;;;;;;;;;;;;;18.51;95.49;98351.25;5042750;28;19924;-48
2022/11/06 12:50:36;;;;;;;;;;;;;;;17.11;95.31;98363.88;5039937;28;19931;-50
2022/11/06 12:53:11;;;;;;;;;;;;;;;17.83;97.33;98352.78;5043576;28;19967;-50